sensor_id;sensor_type;location;lat;lon;timestamp;P1;durP1;ratioP1;P2;durP2;ratioP2
73980;SDS011;62348;51.412;5.436;2023-10-31T00:00:54;11.05;;;7.15;;
73980;SDS011;62348;51.412;5.436;2023-10-31T00:03:19;10.40;;;6.50;;
73980;SDS011;62348;51.412;5.436;2023-10-31T00:05:45;11.43;;;6.13;;
73980;SDS011;62348;51.412;5.436;2023-10-31T00:08:10;12.30;;;6.72;;
73980;SDS011;62348;51.412;5.436;2023-10-31T00:10:36;9.80;;;6.47;;
73980;SDS011;62348;51.412;5.436;2023-10-31T00:13:01;8.88;;;5.75;;
73980;SDS011;62348;51.412;5.436;2023-10-31T00:15:26;7.28;;;4.95;;
73980;SDS011;62348;51.412;5.436;2023-10-31T00:17:54;6.45;;;4.82;;
73980;SDS011;62348;51.412;5.436;2023-10-31T00:20:19;9.85;;;4.32;;
73980;SDS011;62348;51.412;5.436;2023-10-31T00:22:45;6.13;;;3.97;;
73980;SDS011;62348;51.412;5.436;2023-10-31T00:25:11;6.07;;;4.30;;
73980;SDS011;62348;51.412;5.436;2023-10-31T00:27:36;5.20;;;3.80;;
73980;SDS011;62348;51.412;5.436;2023-10-31T00:30:02;5.18;;;3.60;;
73980;SDS011;62348;51.412;5.436;2023-10-31T00:32:28;5.28;;;3.42;;
73980;SDS011;62348;51.412;5.436;2023-10-31T00:34:53;5.40;;;3.28;;
73980;SDS011;62348;51.412;5.436;2023-10-31T00:37:19;4.95;;;3.15;;
73980;SDS011;62348;51.412;5.436;2023-10-31T00:39:44;4.18;;;3.40;;
73980;SDS011;62348;51.412;5.436;2023-10-31T00:42:10;5.82;;;3.08;;
73980;SDS011;62348;51.412;5.436;2023-10-31T00:44:35;7.20;;;4.20;;
73980;SDS011;62348;51.412;5.436;2023-10-31T00:47:00;7.38;;;4.50;;
73980;SDS011;62348;51.412;5.436;2023-10-31T00:49:26;11.65;;;4.97;;
73980;SDS011;62348;51.412;5.436;2023-10-31T00:51:52;7.07;;;5.15;;
73980;SDS011;62348;51.412;5.436;2023-10-31T00:54:17;11.13;;;6.32;;
73980;SDS011;62348;51.412;5.436;2023-10-31T00:56:42;12.57;;;7.78;;
73980;SDS011;62348;51.412;5.436;2023-10-31T00:59:08;15.50;;;9.50;;
73980;SDS011;62348;51.412;5.436;2023-10-31T01:01:33;17.92;;;10.50;;
73980;SDS011;62348;51.412;5.436;2023-10-31T01:03:59;19.13;;;12.13;;
73980;SDS011;62348;51.412;5.436;2023-10-31T01:06:24;21.38;;;12.38;;
73980;SDS011;62348;51.412;5.436;2023-10-31T01:08:49;19.58;;;13.27;;
73980;SDS011;62348;51.412;5.436;2023-10-31T01:11:15;21.92;;;14.65;;
73980;SDS011;62348;51.412;5.436;2023-10-31T01:13:40;20.60;;;14.93;;
73980;SDS011;62348;51.412;5.436;2023-10-31T01:16:06;25.15;;;16.02;;
73980;SDS011;62348;51.412;5.436;2023-10-31T01:18:31;20.85;;;15.45;;
73980;SDS011;62348;51.412;5.436;2023-10-31T01:20:56;21.90;;;16.55;;
73980;SDS011;62348;51.412;5.436;2023-10-31T01:23:22;21.60;;;16.33;;
73980;SDS011;62348;51.412;5.436;2023-10-31T01:25:48;26.30;;;18.35;;
73980;SDS011;62348;51.412;5.436;2023-10-31T01:28:13;23.20;;;17.55;;
73980;SDS011;62348;51.412;5.436;2023-10-31T01:30:38;27.48;;;17.92;;
73980;SDS011;62348;51.412;5.436;2023-10-31T01:33:04;24.88;;;18.02;;
73980;SDS011;62348;51.412;5.436;2023-10-31T01:35:29;25.65;;;17.70;;
73980;SDS011;62348;51.412;5.436;2023-10-31T01:37:55;26.98;;;17.38;;
73980;SDS011;62348;51.412;5.436;2023-10-31T01:40:20;26.42;;;16.85;;
73980;SDS011;62348;51.412;5.436;2023-10-31T01:42:46;26.95;;;18.45;;
73980;SDS011;62348;51.412;5.436;2023-10-31T01:45:11;26.17;;;17.52;;
73980;SDS011;62348;51.412;5.436;2023-10-31T01:47:37;24.67;;;17.20;;
73980;SDS011;62348;51.412;5.436;2023-10-31T01:50:02;24.77;;;16.55;;
73980;SDS011;62348;51.412;5.436;2023-10-31T01:52:28;27.00;;;17.52;;
73980;SDS011;62348;51.412;5.436;2023-10-31T01:54:57;22.27;;;15.60;;
73980;SDS011;62348;51.412;5.436;2023-10-31T01:57:23;21.17;;;15.23;;
73980;SDS011;62348;51.412;5.436;2023-10-31T01:59:49;26.90;;;16.58;;
73980;SDS011;62348;51.412;5.436;2023-10-31T02:02:15;26.10;;;15.85;;
73980;SDS011;62348;51.412;5.436;2023-10-31T02:04:40;26.60;;;16.67;;
73980;SDS011;62348;51.412;5.436;2023-10-31T02:07:05;24.15;;;16.48;;
73980;SDS011;62348;51.412;5.436;2023-10-31T02:09:31;22.90;;;17.05;;
73980;SDS011;62348;51.412;5.436;2023-10-31T02:11:57;26.00;;;16.88;;
73980;SDS011;62348;51.412;5.436;2023-10-31T02:14:23;24.80;;;15.90;;
73980;SDS011;62348;51.412;5.436;2023-10-31T02:16:49;25.15;;;17.48;;
73980;SDS011;62348;51.412;5.436;2023-10-31T02:19:14;26.98;;;17.33;;
73980;SDS011;62348;51.412;5.436;2023-10-31T02:21:44;26.88;;;17.98;;
73980;SDS011;62348;51.412;5.436;2023-10-31T02:24:09;23.55;;;17.08;;
73980;SDS011;62348;51.412;5.436;2023-10-31T02:26:35;25.75;;;17.65;;
73980;SDS011;62348;51.412;5.436;2023-10-31T02:29:00;23.85;;;17.42;;
73980;SDS011;62348;51.412;5.436;2023-10-31T02:31:27;27.55;;;18.17;;
73980;SDS011;62348;51.412;5.436;2023-10-31T02:33:52;24.80;;;18.20;;
73980;SDS011;62348;51.412;5.436;2023-10-31T02:36:18;28.52;;;18.17;;
73980;SDS011;62348;51.412;5.436;2023-10-31T02:38:44;25.67;;;19.10;;
73980;SDS011;62348;51.412;5.436;2023-10-31T02:41:10;28.52;;;20.55;;
73980;SDS011;62348;51.412;5.436;2023-10-31T02:43:35;27.77;;;19.52;;
73980;SDS011;62348;51.412;5.436;2023-10-31T02:46:01;29.38;;;20.13;;
73980;SDS011;62348;51.412;5.436;2023-10-31T02:48:26;28.65;;;19.30;;
73980;SDS011;62348;51.412;5.436;2023-10-31T02:50:52;29.83;;;20.30;;
73980;SDS011;62348;51.412;5.436;2023-10-31T02:53:17;24.00;;;19.20;;
73980;SDS011;62348;51.412;5.436;2023-10-31T02:55:43;33.33;;;20.92;;
73980;SDS011;62348;51.412;5.436;2023-10-31T02:58:09;28.45;;;18.73;;
73980;SDS011;62348;51.412;5.436;2023-10-31T03:00:34;27.65;;;19.48;;
73980;SDS011;62348;51.412;5.436;2023-10-31T03:03:00;26.48;;;19.27;;
73980;SDS011;62348;51.412;5.436;2023-10-31T03:05:25;28.27;;;19.42;;
73980;SDS011;62348;51.412;5.436;2023-10-31T03:07:51;31.13;;;19.17;;
73980;SDS011;62348;51.412;5.436;2023-10-31T03:10:17;29.20;;;18.95;;
73980;SDS011;62348;51.412;5.436;2023-10-31T03:12:44;33.20;;;20.35;;
73980;SDS011;62348;51.412;5.436;2023-10-31T03:15:09;28.48;;;18.98;;
73980;SDS011;62348;51.412;5.436;2023-10-31T03:17:35;25.83;;;18.73;;
73980;SDS011;62348;51.412;5.436;2023-10-31T03:20:01;25.73;;;17.92;;
73980;SDS011;62348;51.412;5.436;2023-10-31T03:22:26;28.33;;;17.95;;
73980;SDS011;62348;51.412;5.436;2023-10-31T03:24:51;28.70;;;19.08;;
73980;SDS011;62348;51.412;5.436;2023-10-31T03:27:17;29.42;;;18.83;;
73980;SDS011;62348;51.412;5.436;2023-10-31T03:29:42;27.92;;;19.50;;
73980;SDS011;62348;51.412;5.436;2023-10-31T03:32:08;24.15;;;18.48;;
73980;SDS011;62348;51.412;5.436;2023-10-31T03:34:33;27.92;;;19.67;;
73980;SDS011;62348;51.412;5.436;2023-10-31T03:36:59;25.77;;;19.23;;
73980;SDS011;62348;51.412;5.436;2023-10-31T03:39:24;24.20;;;18.75;;
73980;SDS011;62348;51.412;5.436;2023-10-31T03:41:50;25.13;;;18.27;;
73980;SDS011;62348;51.412;5.436;2023-10-31T03:44:15;26.42;;;17.02;;
73980;SDS011;62348;51.412;5.436;2023-10-31T03:46:40;25.40;;;18.63;;
73980;SDS011;62348;51.412;5.436;2023-10-31T03:49:06;24.27;;;18.20;;
73980;SDS011;62348;51.412;5.436;2023-10-31T03:51:32;25.60;;;18.52;;
73980;SDS011;62348;51.412;5.436;2023-10-31T03:53:59;24.55;;;18.38;;
73980;SDS011;62348;51.412;5.436;2023-10-31T03:56:24;24.60;;;17.52;;
73980;SDS011;62348;51.412;5.436;2023-10-31T03:58:49;24.75;;;17.25;;
73980;SDS011;62348;51.412;5.436;2023-10-31T04:01:15;23.65;;;17.40;;
73980;SDS011;62348;51.412;5.436;2023-10-31T04:03:40;21.17;;;16.70;;
73980;SDS011;62348;51.412;5.436;2023-10-31T04:06:06;23.13;;;15.93;;
73980;SDS011;62348;51.412;5.436;2023-10-31T04:08:31;22.63;;;16.95;;
73980;SDS011;62348;51.412;5.436;2023-10-31T04:10:56;20.70;;;15.65;;
73980;SDS011;62348;51.412;5.436;2023-10-31T04:13:22;22.13;;;16.23;;
73980;SDS011;62348;51.412;5.436;2023-10-31T04:15:47;18.15;;;14.65;;
73980;SDS011;62348;51.412;5.436;2023-10-31T04:18:13;18.33;;;14.90;;
73980;SDS011;62348;51.412;5.436;2023-10-31T04:20:39;19.23;;;14.25;;
73980;SDS011;62348;51.412;5.436;2023-10-31T04:23:05;15.07;;;13.30;;
73980;SDS011;62348;51.412;5.436;2023-10-31T04:25:31;16.23;;;13.35;;
73980;SDS011;62348;51.412;5.436;2023-10-31T04:27:56;15.90;;;12.73;;
73980;SDS011;62348;51.412;5.436;2023-10-31T04:30:23;16.08;;;12.75;;
73980;SDS011;62348;51.412;5.436;2023-10-31T04:32:48;16.08;;;12.38;;
73980;SDS011;62348;51.412;5.436;2023-10-31T04:35:14;14.80;;;12.35;;
73980;SDS011;62348;51.412;5.436;2023-10-31T04:37:39;14.10;;;12.25;;
73980;SDS011;62348;51.412;5.436;2023-10-31T04:40:04;13.88;;;12.05;;
73980;SDS011;62348;51.412;5.436;2023-10-31T04:42:31;15.10;;;12.27;;
73980;SDS011;62348;51.412;5.436;2023-10-31T04:44:58;14.20;;;11.85;;
73980;SDS011;62348;51.412;5.436;2023-10-31T04:47:24;14.82;;;12.98;;
73980;SDS011;62348;51.412;5.436;2023-10-31T04:49:49;17.13;;;13.70;;
73980;SDS011;62348;51.412;5.436;2023-10-31T04:52:15;16.23;;;14.52;;
73980;SDS011;62348;51.412;5.436;2023-10-31T04:54:42;16.75;;;14.55;;
73980;SDS011;62348;51.412;5.436;2023-10-31T04:57:07;21.02;;;14.55;;
73980;SDS011;62348;51.412;5.436;2023-10-31T04:59:32;17.85;;;15.50;;
73980;SDS011;62348;51.412;5.436;2023-10-31T05:01:58;18.60;;;15.50;;
73980;SDS011;62348;51.412;5.436;2023-10-31T05:04:23;17.85;;;15.25;;
73980;SDS011;62348;51.412;5.436;2023-10-31T05:06:48;19.88;;;15.63;;
73980;SDS011;62348;51.412;5.436;2023-10-31T05:09:14;19.77;;;17.23;;
73980;SDS011;62348;51.412;5.436;2023-10-31T05:11:39;20.23;;;16.70;;
73980;SDS011;62348;51.412;5.436;2023-10-31T05:14:07;20.10;;;16.98;;
73980;SDS011;62348;51.412;5.436;2023-10-31T05:16:38;21.45;;;16.80;;
73980;SDS011;62348;51.412;5.436;2023-10-31T05:19:04;20.65;;;16.45;;
73980;SDS011;62348;51.412;5.436;2023-10-31T05:21:30;19.30;;;15.43;;
73980;SDS011;62348;51.412;5.436;2023-10-31T05:23:55;19.05;;;15.80;;
73980;SDS011;62348;51.412;5.436;2023-10-31T05:26:20;19.35;;;16.55;;
73980;SDS011;62348;51.412;5.436;2023-10-31T05:28:46;19.70;;;15.75;;
73980;SDS011;62348;51.412;5.436;2023-10-31T05:31:14;18.75;;;15.50;;
73980;SDS011;62348;51.412;5.436;2023-10-31T05:33:40;19.35;;;15.65;;
73980;SDS011;62348;51.412;5.436;2023-10-31T05:36:05;16.95;;;14.88;;
73980;SDS011;62348;51.412;5.436;2023-10-31T05:38:31;18.38;;;15.30;;
73980;SDS011;62348;51.412;5.436;2023-10-31T05:40:56;18.63;;;14.80;;
73980;SDS011;62348;51.412;5.436;2023-10-31T05:43:22;16.23;;;13.95;;
73980;SDS011;62348;51.412;5.436;2023-10-31T05:45:47;19.25;;;15.98;;
73980;SDS011;62348;51.412;5.436;2023-10-31T05:48:12;17.60;;;15.35;;
73980;SDS011;62348;51.412;5.436;2023-10-31T05:50:39;18.85;;;14.80;;
73980;SDS011;62348;51.412;5.436;2023-10-31T05:53:06;17.70;;;15.05;;
73980;SDS011;62348;51.412;5.436;2023-10-31T05:55:31;19.25;;;14.43;;
73980;SDS011;62348;51.412;5.436;2023-10-31T05:57:59;16.75;;;13.77;;
73980;SDS011;62348;51.412;5.436;2023-10-31T06:00:25;16.90;;;14.50;;
73980;SDS011;62348;51.412;5.436;2023-10-31T06:02:51;16.83;;;14.02;;
73980;SDS011;62348;51.412;5.436;2023-10-31T06:05:16;14.73;;;12.63;;
73980;SDS011;62348;51.412;5.436;2023-10-31T06:07:41;18.17;;;13.68;;
73980;SDS011;62348;51.412;5.436;2023-10-31T06:10:08;15.23;;;13.57;;
73980;SDS011;62348;51.412;5.436;2023-10-31T06:12:34;17.45;;;14.23;;
73980;SDS011;62348;51.412;5.436;2023-10-31T06:14:59;15.80;;;13.82;;
73980;SDS011;62348;51.412;5.436;2023-10-31T06:17:24;17.05;;;15.23;;
73980;SDS011;62348;51.412;5.436;2023-10-31T06:19:51;18.00;;;14.77;;
73980;SDS011;62348;51.412;5.436;2023-10-31T06:22:16;19.88;;;15.82;;
73980;SDS011;62348;51.412;5.436;2023-10-31T06:24:42;17.67;;;15.63;;
73980;SDS011;62348;51.412;5.436;2023-10-31T06:27:08;19.08;;;15.27;;
73980;SDS011;62348;51.412;5.436;2023-10-31T06:29:33;19.20;;;15.98;;
73980;SDS011;62348;51.412;5.436;2023-10-31T06:31:58;23.33;;;16.73;;
73980;SDS011;62348;51.412;5.436;2023-10-31T06:34:24;21.02;;;15.85;;
73980;SDS011;62348;51.412;5.436;2023-10-31T06:36:49;19.48;;;15.80;;
73980;SDS011;62348;51.412;5.436;2023-10-31T06:39:17;16.98;;;14.32;;
73980;SDS011;62348;51.412;5.436;2023-10-31T06:41:42;21.55;;;15.60;;
73980;SDS011;62348;51.412;5.436;2023-10-31T06:44:07;17.45;;;14.02;;
73980;SDS011;62348;51.412;5.436;2023-10-31T06:46:33;18.15;;;14.18;;
73980;SDS011;62348;51.412;5.436;2023-10-31T06:48:58;17.27;;;15.40;;
73980;SDS011;62348;51.412;5.436;2023-10-31T06:51:24;20.15;;;13.77;;
73980;SDS011;62348;51.412;5.436;2023-10-31T06:53:49;13.95;;;12.45;;
73980;SDS011;62348;51.412;5.436;2023-10-31T06:56:16;15.10;;;12.40;;
73980;SDS011;62348;51.412;5.436;2023-10-31T06:58:41;17.00;;;12.38;;
73980;SDS011;62348;51.412;5.436;2023-10-31T07:01:07;14.13;;;11.18;;
73980;SDS011;62348;51.412;5.436;2023-10-31T07:03:32;16.25;;;11.77;;
73980;SDS011;62348;51.412;5.436;2023-10-31T07:05:58;12.60;;;10.68;;
73980;SDS011;62348;51.412;5.436;2023-10-31T07:08:24;15.40;;;10.35;;
73980;SDS011;62348;51.412;5.436;2023-10-31T07:10:49;11.45;;;9.90;;
73980;SDS011;62348;51.412;5.436;2023-10-31T07:13:14;13.00;;;10.07;;
73980;SDS011;62348;51.412;5.436;2023-10-31T13:35:50;5.40;;;1.70;;
73980;SDS011;62348;51.412;5.436;2023-10-31T13:38:15;6.55;;;2.22;;
73980;SDS011;62348;51.412;5.436;2023-10-31T13:40:41;7.30;;;2.33;;
73980;SDS011;62348;51.412;5.436;2023-10-31T13:43:06;4.22;;;1.92;;
73980;SDS011;62348;51.412;5.436;2023-10-31T13:45:33;5.95;;;2.03;;
73980;SDS011;62348;51.412;5.436;2023-10-31T13:54:35;5.87;;;2.43;;
73980;SDS011;62348;51.412;5.436;2023-10-31T13:57:01;4.25;;;2.10;;
73980;SDS011;62348;51.412;5.436;2023-10-31T13:59:26;4.50;;;2.70;;
73980;SDS011;62348;51.412;5.436;2023-10-31T14:01:52;8.98;;;2.92;;
73980;SDS011;62348;51.412;5.436;2023-10-31T14:04:18;7.57;;;2.30;;
73980;SDS011;62348;51.412;5.436;2023-10-31T14:06:44;5.03;;;2.25;;
73980;SDS011;62348;51.412;5.436;2023-10-31T14:09:10;9.60;;;2.65;;
73980;SDS011;62348;51.412;5.436;2023-10-31T14:11:37;4.60;;;2.20;;
73980;SDS011;62348;51.412;5.436;2023-10-31T14:14:04;6.60;;;2.60;;
73980;SDS011;62348;51.412;5.436;2023-10-31T14:16:44;7.05;;;2.38;;
73980;SDS011;62348;51.412;5.436;2023-10-31T14:19:10;7.47;;;2.60;;
73980;SDS011;62348;51.412;5.436;2023-10-31T14:21:36;6.95;;;3.00;;
73980;SDS011;62348;51.412;5.436;2023-10-31T14:24:02;4.78;;;2.90;;
73980;SDS011;62348;51.412;5.436;2023-10-31T14:26:28;8.35;;;2.95;;
73980;SDS011;62348;51.412;5.436;2023-10-31T14:31:49;8.43;;;3.17;;
73980;SDS011;62348;51.412;5.436;2023-10-31T14:34:15;7.07;;;2.95;;
73980;SDS011;62348;51.412;5.436;2023-10-31T14:36:40;5.32;;;2.80;;
73980;SDS011;62348;51.412;5.436;2023-10-31T14:39:06;6.07;;;3.80;;
73980;SDS011;62348;51.412;5.436;2023-10-31T14:41:33;9.00;;;3.80;;
73980;SDS011;62348;51.412;5.436;2023-10-31T14:43:59;9.15;;;3.50;;
73980;SDS011;62348;51.412;5.436;2023-10-31T14:46:26;13.15;;;3.40;;
73980;SDS011;62348;51.412;5.436;2023-10-31T14:48:52;7.70;;;3.45;;
73980;SDS011;62348;51.412;5.436;2023-10-31T14:51:17;9.38;;;3.63;;
73980;SDS011;62348;51.412;5.436;2023-10-31T14:53:43;6.10;;;3.30;;
73980;SDS011;62348;51.412;5.436;2023-10-31T14:56:08;13.68;;;4.53;;
73980;SDS011;62348;51.412;5.436;2023-10-31T14:58:34;7.82;;;3.80;;
73980;SDS011;62348;51.412;5.436;2023-10-31T15:00:59;6.03;;;3.80;;
73980;SDS011;62348;51.412;5.436;2023-10-31T15:03:24;5.90;;;3.72;;
73980;SDS011;62348;51.412;5.436;2023-10-31T15:05:50;8.18;;;3.72;;
73980;SDS011;62348;51.412;5.436;2023-10-31T15:08:15;6.80;;;4.47;;
73980;SDS011;62348;51.412;5.436;2023-10-31T15:10:41;9.80;;;4.13;;
73980;SDS011;62348;51.412;5.436;2023-10-31T15:13:06;4.97;;;3.53;;
73980;SDS011;62348;51.412;5.436;2023-10-31T15:15:32;6.55;;;4.07;;
73980;SDS011;62348;51.412;5.436;2023-10-31T15:17:57;7.95;;;4.45;;
73980;SDS011;62348;51.412;5.436;2023-10-31T15:20:23;7.38;;;4.13;;
73980;SDS011;62348;51.412;5.436;2023-10-31T15:22:48;5.07;;;3.85;;
73980;SDS011;62348;51.412;5.436;2023-10-31T15:25:13;6.65;;;3.80;;
73980;SDS011;62348;51.412;5.436;2023-10-31T15:27:39;11.27;;;4.15;;
73980;SDS011;62348;51.412;5.436;2023-10-31T15:30:07;5.63;;;3.63;;
73980;SDS011;62348;51.412;5.436;2023-10-31T15:32:35;4.20;;;3.80;;
73980;SDS011;62348;51.412;5.436;2023-10-31T15:35:01;6.85;;;3.20;;
73980;SDS011;62348;51.412;5.436;2023-10-31T15:37:28;5.03;;;3.70;;
73980;SDS011;62348;51.412;5.436;2023-10-31T15:39:54;5.95;;;3.00;;
73980;SDS011;62348;51.412;5.436;2023-10-31T15:42:19;3.97;;;2.65;;
73980;SDS011;62348;51.412;5.436;2023-10-31T15:44:45;5.38;;;3.20;;
73980;SDS011;62348;51.412;5.436;2023-10-31T15:47:10;4.93;;;2.75;;
73980;SDS011;62348;51.412;5.436;2023-10-31T15:49:37;6.47;;;2.78;;
73980;SDS011;62348;51.412;5.436;2023-10-31T15:52:03;3.63;;;2.63;;
73980;SDS011;62348;51.412;5.436;2023-10-31T15:54:29;4.03;;;2.58;;
73980;SDS011;62348;51.412;5.436;2023-10-31T15:56:54;3.03;;;2.60;;
73980;SDS011;62348;51.412;5.436;2023-10-31T15:59:20;4.00;;;3.08;;
73980;SDS011;62348;51.412;5.436;2023-10-31T16:01:46;4.90;;;3.15;;
73980;SDS011;62348;51.412;5.436;2023-10-31T16:04:12;4.20;;;2.78;;
73980;SDS011;62348;51.412;5.436;2023-10-31T16:06:39;4.70;;;3.42;;
73980;SDS011;62348;51.412;5.436;2023-10-31T16:09:04;5.03;;;3.40;;
73980;SDS011;62348;51.412;5.436;2023-10-31T16:11:30;6.32;;;3.40;;
73980;SDS011;62348;51.412;5.436;2023-10-31T16:13:57;4.20;;;3.25;;
73980;SDS011;62348;51.412;5.436;2023-10-31T16:16:23;5.03;;;3.60;;
73980;SDS011;62348;51.412;5.436;2023-10-31T16:18:48;8.90;;;4.03;;
73980;SDS011;62348;51.412;5.436;2023-10-31T16:21:17;8.00;;;3.17;;
73980;SDS011;62348;51.412;5.436;2023-10-31T16:23:43;6.35;;;3.60;;
73980;SDS011;62348;51.412;5.436;2023-10-31T16:26:10;4.57;;;3.72;;
73980;SDS011;62348;51.412;5.436;2023-10-31T16:28:35;4.90;;;3.53;;
73980;SDS011;62348;51.412;5.436;2023-10-31T16:31:02;4.43;;;3.42;;
73980;SDS011;62348;51.412;5.436;2023-10-31T16:33:28;4.40;;;3.60;;
73980;SDS011;62348;51.412;5.436;2023-10-31T16:35:54;5.97;;;3.83;;
73980;SDS011;62348;51.412;5.436;2023-10-31T16:38:20;6.22;;;3.28;;
73980;SDS011;62348;51.412;5.436;2023-10-31T16:40:45;5.57;;;4.03;;
73980;SDS011;62348;51.412;5.436;2023-10-31T16:43:10;3.88;;;3.25;;
73980;SDS011;62348;51.412;5.436;2023-10-31T16:45:36;5.20;;;3.80;;
73980;SDS011;62348;51.412;5.436;2023-10-31T16:48:01;5.85;;;4.30;;
73980;SDS011;62348;51.412;5.436;2023-10-31T16:50:27;5.65;;;4.07;;
73980;SDS011;62348;51.412;5.436;2023-10-31T16:52:57;7.22;;;3.83;;
73980;SDS011;62348;51.412;5.436;2023-10-31T16:55:23;4.63;;;3.63;;
73980;SDS011;62348;51.412;5.436;2023-10-31T16:57:49;5.40;;;3.83;;
73980;SDS011;62348;51.412;5.436;2023-10-31T17:00:14;5.97;;;4.40;;
73980;SDS011;62348;51.412;5.436;2023-10-31T17:02:40;7.65;;;4.57;;
73980;SDS011;62348;51.412;5.436;2023-10-31T17:05:05;8.85;;;5.10;;
73980;SDS011;62348;51.412;5.436;2023-10-31T17:07:31;7.88;;;5.43;;
73980;SDS011;62348;51.412;5.436;2023-10-31T17:09:56;6.90;;;4.80;;
73980;SDS011;62348;51.412;5.436;2023-10-31T17:12:22;8.07;;;5.60;;
73980;SDS011;62348;51.412;5.436;2023-10-31T17:14:47;8.30;;;5.47;;
73980;SDS011;62348;51.412;5.436;2023-10-31T17:17:13;10.70;;;5.90;;
73980;SDS011;62348;51.412;5.436;2023-10-31T17:19:38;10.65;;;5.00;;
73980;SDS011;62348;51.412;5.436;2023-10-31T17:22:03;8.30;;;6.40;;
73980;SDS011;62348;51.412;5.436;2023-10-31T17:24:29;8.38;;;6.07;;
73980;SDS011;62348;51.412;5.436;2023-10-31T17:26:55;7.00;;;6.00;;
73980;SDS011;62348;51.412;5.436;2023-10-31T17:29:20;8.53;;;6.28;;
73980;SDS011;62348;51.412;5.436;2023-10-31T17:31:46;9.32;;;6.03;;
73980;SDS011;62348;51.412;5.436;2023-10-31T17:34:11;9.95;;;6.38;;
73980;SDS011;62348;51.412;5.436;2023-10-31T17:36:36;9.73;;;6.57;;
73980;SDS011;62348;51.412;5.436;2023-10-31T17:39:02;9.55;;;5.95;;
73980;SDS011;62348;51.412;5.436;2023-10-31T17:41:28;9.63;;;6.50;;
73980;SDS011;62348;51.412;5.436;2023-10-31T17:43:53;8.60;;;6.28;;
73980;SDS011;62348;51.412;5.436;2023-10-31T17:46:19;8.90;;;6.60;;
73980;SDS011;62348;51.412;5.436;2023-10-31T17:48:45;11.05;;;6.72;;
73980;SDS011;62348;51.412;5.436;2023-10-31T17:51:10;8.63;;;6.57;;
73980;SDS011;62348;51.412;5.436;2023-10-31T17:53:36;7.13;;;6.20;;
73980;SDS011;62348;51.412;5.436;2023-10-31T17:56:03;10.05;;;6.50;;
73980;SDS011;62348;51.412;5.436;2023-10-31T17:58:29;10.93;;;7.18;;
73980;SDS011;62348;51.412;5.436;2023-10-31T18:00:54;12.75;;;7.22;;
73980;SDS011;62348;51.412;5.436;2023-10-31T18:03:21;12.95;;;7.75;;
73980;SDS011;62348;51.412;5.436;2023-10-31T18:05:46;12.60;;;7.68;;
73980;SDS011;62348;51.412;5.436;2023-10-31T18:08:11;11.18;;;7.65;;
73980;SDS011;62348;51.412;5.436;2023-10-31T18:10:37;23.65;;;9.45;;
73980;SDS011;62348;51.412;5.436;2023-10-31T18:13:02;12.77;;;7.88;;
73980;SDS011;62348;51.412;5.436;2023-10-31T18:15:28;10.70;;;7.78;;
73980;SDS011;62348;51.412;5.436;2023-10-31T18:17:53;10.40;;;7.30;;
73980;SDS011;62348;51.412;5.436;2023-10-31T18:20:18;13.02;;;8.30;;
73980;SDS011;62348;51.412;5.436;2023-10-31T18:22:44;11.02;;;8.20;;
73980;SDS011;62348;51.412;5.436;2023-10-31T18:25:11;10.70;;;7.38;;
73980;SDS011;62348;51.412;5.436;2023-10-31T18:27:36;14.68;;;7.70;;
73980;SDS011;62348;51.412;5.436;2023-10-31T18:30:02;10.55;;;7.75;;
73980;SDS011;62348;51.412;5.436;2023-10-31T18:32:27;9.93;;;7.07;;
73980;SDS011;62348;51.412;5.436;2023-10-31T18:34:53;10.85;;;7.07;;
73980;SDS011;62348;51.412;5.436;2023-10-31T18:37:18;16.48;;;8.40;;
73980;SDS011;62348;51.412;5.436;2023-10-31T18:39:44;13.60;;;8.38;;
73980;SDS011;62348;51.412;5.436;2023-10-31T18:42:09;16.20;;;9.23;;
73980;SDS011;62348;51.412;5.436;2023-10-31T18:44:36;12.30;;;7.63;;
73980;SDS011;62348;51.412;5.436;2023-10-31T18:47:02;11.60;;;6.68;;
73980;SDS011;62348;51.412;5.436;2023-10-31T18:49:27;11.55;;;7.20;;
73980;SDS011;62348;51.412;5.436;2023-10-31T18:51:53;11.05;;;7.70;;
73980;SDS011;62348;51.412;5.436;2023-10-31T18:54:18;10.70;;;6.88;;
73980;SDS011;62348;51.412;5.436;2023-10-31T18:56:44;12.48;;;8.60;;
73980;SDS011;62348;51.412;5.436;2023-10-31T18:59:10;12.23;;;7.15;;
73980;SDS011;62348;51.412;5.436;2023-10-31T19:01:35;11.43;;;7.68;;
73980;SDS011;62348;51.412;5.436;2023-10-31T19:04:01;10.85;;;7.22;;
73980;SDS011;62348;51.412;5.436;2023-10-31T19:06:28;8.18;;;5.97;;
73980;SDS011;62348;51.412;5.436;2023-10-31T19:08:53;7.22;;;6.00;;
73980;SDS011;62348;51.412;5.436;2023-10-31T19:11:18;14.13;;;6.95;;
73980;SDS011;62348;51.412;5.436;2023-10-31T19:13:44;11.65;;;7.18;;
73980;SDS011;62348;51.412;5.436;2023-10-31T19:16:09;12.90;;;6.85;;
73980;SDS011;62348;51.412;5.436;2023-10-31T19:18:34;13.02;;;7.18;;
73980;SDS011;62348;51.412;5.436;2023-10-31T19:21:00;12.80;;;6.45;;
73980;SDS011;62348;51.412;5.436;2023-10-31T19:23:25;9.20;;;6.47;;
73980;SDS011;62348;51.412;5.436;2023-10-31T19:25:51;13.50;;;6.18;;
73980;SDS011;62348;51.412;5.436;2023-10-31T19:28:16;9.27;;;6.50;;
73980;SDS011;62348;51.412;5.436;2023-10-31T19:30:41;14.45;;;6.82;;
73980;SDS011;62348;51.412;5.436;2023-10-31T19:33:07;14.38;;;6.72;;
73980;SDS011;62348;51.412;5.436;2023-10-31T19:35:33;16.80;;;6.78;;
73980;SDS011;62348;51.412;5.436;2023-10-31T19:37:59;12.43;;;7.15;;
73980;SDS011;62348;51.412;5.436;2023-10-31T19:40:24;13.90;;;7.10;;
73980;SDS011;62348;51.412;5.436;2023-10-31T19:42:52;10.25;;;6.50;;
73980;SDS011;62348;51.412;5.436;2023-10-31T19:45:18;13.85;;;7.18;;
73980;SDS011;62348;51.412;5.436;2023-10-31T19:47:43;13.88;;;7.20;;
73980;SDS011;62348;51.412;5.436;2023-10-31T19:50:09;8.65;;;6.65;;
73980;SDS011;62348;51.412;5.436;2023-10-31T19:52:35;13.52;;;7.00;;
73980;SDS011;62348;51.412;5.436;2023-10-31T19:55:00;17.00;;;7.45;;
73980;SDS011;62348;51.412;5.436;2023-10-31T19:57:25;11.48;;;6.70;;
73980;SDS011;62348;51.412;5.436;2023-10-31T19:59:51;13.25;;;7.10;;
73980;SDS011;62348;51.412;5.436;2023-10-31T20:02:16;11.30;;;6.30;;
73980;SDS011;62348;51.412;5.436;2023-10-31T20:04:42;14.05;;;7.05;;
73980;SDS011;62348;51.412;5.436;2023-10-31T20:07:07;16.15;;;7.07;;
73980;SDS011;62348;51.412;5.436;2023-10-31T20:09:33;17.75;;;7.70;;
73980;SDS011;62348;51.412;5.436;2023-10-31T20:11:58;15.70;;;8.23;;
73980;SDS011;62348;51.412;5.436;2023-10-31T20:14:24;12.02;;;6.93;;
73980;SDS011;62348;51.412;5.436;2023-10-31T20:16:50;15.27;;;8.60;;
73980;SDS011;62348;51.412;5.436;2023-10-31T20:19:15;16.50;;;8.38;;
73980;SDS011;62348;51.412;5.436;2023-10-31T20:21:40;13.40;;;8.52;;
73980;SDS011;62348;51.412;5.436;2023-10-31T20:24:06;13.23;;;7.95;;
73980;SDS011;62348;51.412;5.436;2023-10-31T20:26:32;19.98;;;8.23;;
73980;SDS011;62348;51.412;5.436;2023-10-31T20:28:57;17.20;;;8.70;;
73980;SDS011;62348;51.412;5.436;2023-10-31T20:31:23;16.85;;;7.68;;
73980;SDS011;62348;51.412;5.436;2023-10-31T20:33:49;13.05;;;7.38;;
73980;SDS011;62348;51.412;5.436;2023-10-31T20:36:15;17.27;;;7.78;;
73980;SDS011;62348;51.412;5.436;2023-10-31T20:38:41;14.77;;;7.10;;
73980;SDS011;62348;51.412;5.436;2023-10-31T20:41:07;12.90;;;7.13;;
73980;SDS011;62348;51.412;5.436;2023-10-31T20:43:32;17.23;;;6.80;;
73980;SDS011;62348;51.412;5.436;2023-10-31T20:45:58;15.70;;;7.68;;
73980;SDS011;62348;51.412;5.436;2023-10-31T20:48:23;16.13;;;7.55;;
73980;SDS011;62348;51.412;5.436;2023-10-31T20:50:49;17.02;;;7.25;;
73980;SDS011;62348;51.412;5.436;2023-10-31T20:53:14;15.30;;;6.78;;